Time;durP1;ratioP1;P1;durP2;ratioP2;P2;SDS_P1;SDS_P2;PMS_P1;PMS_P2;Temp;Humidity;BMP_temperature;BMP_pressure;BME280_temperature;BME280_humidity;BME280_pressure;Samples;Min_cycle;Max_cycle;Signal;HPM_P1;HPM_P2
2021/05/04 00:01:28;;;;;;;1.33;0.80;;;;;;;17.53;37.18;99401.75;5034868;28;20037;-87
2021/05/04 00:03:54;;;;;;;1.52;0.88;;;;;;;17.51;37.56;99395.06;5035071;28;20028;-89
2021/05/04 00:06:19;;;;;;;2.60;1.08;;;;;;;17.17;37.98;99400.91;5035865;28;20404;-89
2021/05/04 00:08:45;;;;;;;2.95;1.00;;;;;;;17.05;37.85;99404.78;5035564;28;20053;-89
2021/05/04 00:11:10;;;;;;;2.10;0.88;;;;;;;17.05;38.06;99407.56;5034868;28;20073;-89
2021/05/04 00:13:36;;;;;;;2.20;0.70;;;;;;;17.10;37.66;99401.66;5035085;28;20029;-90
2021/05/04 00:16:03;;;;;;;1.75;1.00;;;;;;;17.14;37.71;99424.53;5034640;28;20423;-89
2021/05/04 00:18:29;;;;;;;4.82;0.90;;;;;;;17.22;37.35;99425.34;5035327;28;20112;-74
2021/05/04 00:20:54;;;;;;;3.40;1.13;;;;;;;17.00;37.87;99440.25;5033917;28;20108;-82
2021/05/04 00:23:20;;;;;;;1.23;0.70;;;;;;;17.25;37.53;99443.13;5035220;28;20029;-90
2021/05/04 00:25:46;;;;;;;6.18;1.27;;;;;;;17.34;37.46;99443.53;5034779;28;20032;-84
2021/05/04 00:28:11;;;;;;;3.10;0.90;;;;;;;17.30;37.43;99456.53;5034278;28;20026;-75
2021/05/04 00:30:37;;;;;;;2.67;0.85;;;;;;;17.20;37.83;99456.09;5034563;28;20034;-73
2021/05/04 00:33:03;;;;;;;2.28;1.00;;;;;;;17.41;37.39;99463.69;5034591;28;20067;-87
2021/05/04 00:35:28;;;;;;;2.45;0.93;;;;;;;17.43;37.38;99457.75;5034464;28;20492;-71
2021/05/04 00:37:54;;;;;;;2.92;0.90;;;;;;;16.98;38.51;99470.97;5034560;28;20060;-89
2021/05/04 00:40:20;;;;;;;5.05;1.42;;;;;;;16.70;39.03;99479.91;5034752;28;20591;-88
2021/05/04 00:42:45;;;;;;;3.22;0.93;;;;;;;17.12;38.19;99489.59;5031560;28;20399;-90
2021/05/04 00:45:11;;;;;;;2.53;1.08;;;;;;;16.75;38.94;99487.81;5034606;28;20021;-81
2021/05/04 00:47:37;;;;;;;5.00;0.93;;;;;;;16.97;38.36;99490.69;5034269;28;20036;-87
2021/05/04 00:50:04;;;;;;;2.53;1.17;;;;;;;17.22;37.89;99507.38;5032035;28;20028;-89
2021/05/04 00:52:30;;;;;;;3.65;1.17;;;;;;;17.38;37.66;99511.41;5034662;28;20028;-88
2021/05/04 00:54:56;;;;;;;4.60;2.00;;;;;;;17.43;37.39;99511.00;5034599;28;20395;-83
2021/05/04 00:57:23;;;;;;;2.88;1.17;;;;;;;16.98;38.76;99523.41;5033941;28;20021;-81
2021/05/04 00:59:49;;;;;;;2.75;0.90;;;;;;;17.24;38.02;99525.16;5034205;28;20034;-71
2021/05/04 01:02:16;;;;;;;3.47;1.17;;;;;;;17.30;38.28;99533.81;5034668;28;20025;-89
2021/05/04 01:04:43;;;;;;;1.60;0.88;;;;;;;16.94;38.98;99533.66;5033885;28;20084;-89
2021/05/04 01:07:09;;;;;;;4.85;1.83;;;;;;;17.08;38.94;99544.78;5034296;28;20025;-90
2021/05/04 01:09:35;;;;;;;3.83;1.63;;;;;;;17.03;38.88;99545.13;5033748;28;20826;-71
2021/05/04 01:12:00;;;;;;;6.20;1.25;;;;;;;17.15;38.80;99557.81;5033718;28;20030;-71
2021/05/04 01:14:26;;;;;;;2.42;1.25;;;;;;;17.49;38.23;99552.84;5034042;28;20068;-89
2021/05/04 01:16:54;;;;;;;3.50;1.10;;;;;;;17.14;38.86;99570.81;5033771;28;20086;-89
2021/05/04 01:19:21;;;;;;;11.50;3.25;;;;;;;17.15;38.87;99574.38;5032986;28;20033;-89
2021/05/04 01:21:47;;;;;;;5.30;1.63;;;;;;;17.46;38.21;99582.06;5033633;28;20033;-87
2021/05/04 01:24:14;;;;;;;5.55;2.10;;;;;;;17.32;38.44;99583.94;5033996;28;20105;-86
2021/05/04 01:26:41;;;;;;;5.30;1.40;;;;;;;17.48;38.30;99584.41;5033218;28;20037;-79
2021/05/04 01:29:07;;;;;;;2.92;1.05;;;;;;;17.20;38.74;99598.84;5033363;28;20040;-74
2021/05/04 01:31:33;;;;;;;4.03;1.30;;;;;;;17.51;38.00;99594.69;5033970;28;20434;-89
2021/05/04 01:33:59;;;;;;;4.18;1.33;;;;;;;17.35;38.14;99613.53;5033753;28;20072;-80
2021/05/04 01:36:25;;;;;;;2.17;1.38;;;;;;;17.52;37.86;99607.31;5033307;28;20028;-89
2021/05/04 01:38:50;;;;;;;3.00;1.13;;;;;;;17.30;37.98;99622.97;5033569;28;20029;-89
2021/05/04 01:41:16;;;;;;;6.40;1.40;;;;;;;17.26;38.25;99627.69;5032936;28;20039;-89
2021/05/04 01:43:41;;;;;;;5.75;1.42;;;;;;;17.55;37.31;99633.38;5033790;28;20104;-89
2021/05/04 01:46:07;;;;;;;4.85;1.30;;;;;;;17.27;38.11;99634.00;5033809;28;20029;-90
2021/05/04 01:48:33;;;;;;;4.10;1.30;;;;;;;17.45;37.78;99643.16;5033583;28;20030;-87
2021/05/04 01:50:58;;;;;;;4.45;1.13;;;;;;;17.62;37.57;99655.50;5032097;28;20025;-72
2021/05/04 01:53:24;;;;;;;7.35;1.30;;;;;;;17.48;37.74;99651.50;5033887;28;20518;-89
2021/05/04 01:55:50;;;;;;;7.28;1.73;;;;;;;17.12;38.27;99655.97;5033793;28;20428;-89
2021/05/04 01:58:17;;;;;;;3.22;1.35;;;;;;;17.23;38.30;99672.63;5033189;28;20029;-78
2021/05/04 02:00:43;;;;;;;3.97;1.25;;;;;;;17.24;38.23;99665.13;5035911;28;20120;-89
2021/05/04 02:03:08;;;;;;;3.78;1.05;;;;;;;17.13;38.47;99665.84;5037666;28;20067;-71
2021/05/04 02:05:34;;;;;;;5.35;1.75;;;;;;;16.95;39.03;99661.38;5037683;28;20483;-79
2021/05/04 02:07:59;;;;;;;4.35;2.22;;;;;;;17.35;38.01;99674.28;5037826;28;20468;-90
2021/05/04 02:10:25;;;;;;;5.63;1.35;;;;;;;17.58;37.65;99682.31;5036745;28;20072;-88
2021/05/04 02:12:51;;;;;;;3.22;1.20;;;;;;;16.99;38.55;99673.22;5037495;28;20419;-89
2021/05/04 02:15:16;;;;;;;3.80;1.55;;;;;;;17.36;37.93;99679.41;5037421;28;20061;-71
2021/05/04 02:17:42;;;;;;;6.60;1.95;;;;;;;17.26;37.94;99691.19;5036792;28;20032;-72
2021/05/04 02:20:09;;;;;;;6.78;1.80;;;;;;;17.08;37.74;99693.03;5036169;28;20083;-71
2021/05/04 02:22:35;;;;;;;3.58;1.08;;;;;;;17.09;37.88;99711.16;5036858;28;20045;-87
2021/05/04 02:25:01;;;;;;;4.60;1.30;;;;;;;17.12;37.90;99702.91;5037103;28;20030;-88
2021/05/04 02:27:27;;;;;;;8.13;1.73;;;;;;;16.97;38.35;99712.22;5036358;28;20488;-77
2021/05/04 02:29:52;;;;;;;4.22;1.42;;;;;;;16.49;38.90;99712.13;5036608;28;20111;-89
2021/05/04 02:32:18;;;;;;;6.72;2.35;;;;;;;16.82;38.16;99716.81;5036310;28;20033;-88
2021/05/04 02:34:43;;;;;;;8.93;1.95;;;;;;;16.98;37.82;99705.53;5037087;28;20037;-89
2021/05/04 02:37:09;;;;;;;5.63;1.52;;;;;;;17.14;37.41;99730.91;5037330;28;20033;-88
2021/05/04 02:39:35;;;;;;;6.25;1.60;;;;;;;17.13;37.44;99728.53;5036975;28;20021;-88
2021/05/04 02:42:00;;;;;;;4.03;1.55;;;;;;;17.25;37.25;99731.00;5036383;28;20025;-72
2021/05/04 02:44:26;;;;;;;4.38;1.73;;;;;;;17.09;37.33;99734.03;5037056;28;20101;-89
2021/05/04 02:46:51;;;;;;;4.65;1.50;;;;;;;17.20;37.20;99758.94;5036810;28;20063;-88
2021/05/04 02:49:17;;;;;;;7.80;1.58;;;;;;;17.13;37.27;99761.66;5035317;28;20037;-76
2021/05/04 02:51:44;;;;;;;8.70;2.45;;;;;;;17.06;37.41;99765.13;5018821;28;20025;-88
2021/05/04 02:54:09;;;;;;;5.43;1.30;;;;;;;16.90;37.43;99776.41;5036203;28;20021;-89
2021/05/04 02:56:35;;;;;;;3.33;1.00;;;;;;;17.09;36.67;99777.41;5036742;28;20383;-89
2021/05/04 02:59:00;;;;;;;5.97;1.55;;;;;;;17.13;36.67;99784.53;5036522;28;20480;-87
2021/05/04 03:01:26;;;;;;;5.28;1.50;;;;;;;17.14;36.63;99796.34;5035016;28;20025;-72
2021/05/04 03:03:52;;;;;;;3.15;1.23;;;;;;;17.12;36.96;99793.97;5035689;28;20109;-87
2021/05/04 03:06:18;;;;;;;5.97;2.00;;;;;;;17.57;36.05;99805.81;5036584;28;20116;-71
2021/05/04 03:08:43;;;;;;;6.18;1.80;;;;;;;16.92;37.15;99809.13;5035503;28;20042;-89
2021/05/04 03:11:09;;;;;;;4.57;1.58;;;;;;;17.55;35.92;99805.41;5035221;28;20083;-75
2021/05/04 03:13:35;;;;;;;5.10;1.38;;;;;;;17.55;36.31;99824.75;5036569;28;20045;-89
2021/05/04 03:16:01;;;;;;;5.75;1.55;;;;;;;17.27;36.79;99835.53;5035516;28;20043;-75
2021/05/04 03:18:26;;;;;;;2.55;0.90;;;;;;;17.22;36.43;99831.13;5036368;28;20036;-88
2021/05/04 03:20:52;;;;;;;8.20;1.60;;;;;;;17.13;37.17;99838.94;5035110;28;20030;-87
2021/05/04 03:23:20;;;;;;;3.15;1.02;;;;;;;17.58;36.19;99848.81;5035422;28;20021;-71
2021/05/04 03:25:48;;;;;;;3.47;1.00;;;;;;;17.52;36.28;99844.81;5036248;28;20021;-89
2021/05/04 03:28:15;;;;;;;2.95;0.93;;;;;;;17.51;36.12;99853.50;5035991;28;20030;-90
2021/05/04 03:30:41;;;;;;;4.32;1.73;;;;;;;17.14;36.78;99857.88;5035335;28;20820;-88
2021/05/04 03:33:07;;;;;;;5.78;1.23;;;;;;;16.72;37.36;99874.75;5035465;28;20179;-79
2021/05/04 03:35:33;;;;;;;3.05;1.00;;;;;;;16.89;37.15;99873.38;5036014;28;20064;-88
2021/05/04 03:37:59;;;;;;;1.95;0.93;;;;;;;16.74;37.45;99879.88;5035766;28;20056;-82
2021/05/04 03:40:25;;;;;;;2.67;0.95;;;;;;;17.17;36.56;99879.22;5035150;28;20026;-90
2021/05/04 03:42:51;;;;;;;3.97;0.88;;;;;;;17.23;36.28;99892.66;5035942;28;20507;-78
2021/05/04 03:45:17;;;;;;;4.15;1.23;;;;;;;17.13;36.15;99902.41;5035476;28;20099;-86
2021/05/04 03:47:43;;;;;;;4.22;1.55;;;;;;;16.51;37.83;99890.97;5035340;28;20049;-87
2021/05/04 03:50:12;;;;;;;0.95;0.77;;;;;;;16.15;38.49;99906.22;5034707;28;20029;-71
2021/05/04 03:52:38;;;;;;;3.58;1.20;;;;;;;17.12;36.64;99898.88;5018390;28;20391;-86
2021/05/04 03:55:04;;;;;;;5.72;1.70;;;;;;;16.81;37.08;99911.13;5018008;28;20121;-88
2021/05/04 03:57:30;;;;;;;1.98;1.10;;;;;;;16.86;37.02;99924.59;5035002;28;20384;-87
2021/05/04 03:59:57;;;;;;;5.20;1.33;;;;;;;16.98;36.89;99919.97;5034745;28;20152;-88
2021/05/04 04:02:23;;;;;;;4.57;1.60;;;;;;;16.97;37.09;99926.69;5035234;28;20049;-87
2021/05/04 04:04:48;;;;;;;2.47;1.05;;;;;;;17.12;36.54;99929.22;5035072;28;20471;-87
2021/05/04 04:07:14;;;;;;;5.63;1.67;;;;;;;17.22;36.63;99940.75;5034736;28;20045;-86
2021/05/04 04:09:39;;;;;;;3.22;1.42;;;;;;;17.30;36.57;99939.66;5034588;28;20049;-73
2021/05/04 04:12:05;;;;;;;2.97;1.27;;;;;;;17.19;36.85;99940.34;5035352;28;20128;-88
2021/05/04 04:14:31;;;;;;;4.72;1.70;;;;;;;17.17;36.87;99939.94;5035365;28;20373;-87
2021/05/04 04:16:56;;;;;;;4.22;1.40;;;;;;;17.31;37.07;99944.03;5034832;28;20026;-87
2021/05/04 04:19:22;;;;;;;6.80;1.80;;;;;;;17.22;37.11;99951.81;5034337;28;20498;-76
2021/05/04 04:21:49;;;;;;;8.48;2.30;;;;;;;17.35;37.01;99950.38;5034903;28;20026;-72
2021/05/04 04:24:16;;;;;;;11.10;2.10;;;;;;;17.25;37.02;99951.88;5034037;28;20036;-85
2021/05/04 04:26:42;;;;;;;10.07;2.35;;;;;;;17.45;36.76;99953.25;5034746;28;20026;-88
2021/05/04 04:29:07;;;;;;;8.45;1.90;;;;;;;17.33;36.87;99944.47;5034119;28;20044;-71
2021/05/04 04:31:33;;;;;;;5.57;2.17;;;;;;;17.11;37.17;99958.00;5034789;28;20039;-89
2021/05/04 04:33:59;;;;;;;10.25;2.85;;;;;;;17.20;36.66;99954.94;5034738;28;20041;-71
2021/05/04 04:36:24;;;;;;;10.60;2.13;;;;;;;17.06;36.89;99965.81;5033689;28;20029;-88
2021/05/04 04:38:50;;;;;;;9.00;1.98;;;;;;;16.81;36.83;99966.28;5034507;28;20036;-87
2021/05/04 04:41:15;;;;;;;5.07;1.88;;;;;;;16.91;36.67;99973.13;5033919;28;20472;-88
2021/05/04 04:43:41;;;;;;;10.18;1.77;;;;;;;16.98;36.58;99983.44;5034537;28;20357;-71
2021/05/04 04:46:07;;;;;;;7.72;2.03;;;;;;;17.05;36.19;99978.81;5034800;28;20602;-85
2021/05/04 04:48:32;;;;;;;12.75;2.30;;;;;;;16.82;36.59;99983.63;5034906;28;20026;-89
2021/05/04 04:50:58;;;;;;;7.43;1.52;;;;;;;16.84;36.41;99986.81;5032742;28;20060;-73
2021/05/04 04:53:24;;;;;;;8.32;2.00;;;;;;;16.70;36.61;99989.38;5033687;28;20061;-74
2021/05/04 04:55:49;;;;;;;3.88;1.73;;;;;;;16.83;36.41;99997.06;5034417;28;20021;-88
2021/05/04 04:58:15;;;;;;;7.70;2.55;;;;;;;16.71;36.26;99994.53;5034493;28;20036;-85
2021/05/04 05:00:41;;;;;;;7.50;1.80;;;;;;;16.56;36.85;100001.78;5033761;28;20029;-70
2021/05/04 05:03:06;;;;;;;7.72;1.98;;;;;;;16.71;36.22;100011.09;5034547;28;20033;-87
2021/05/04 05:05:32;;;;;;;6.30;1.88;;;;;;;16.46;36.37;100016.16;5034306;28;20040;-88
2021/05/04 05:07:57;;;;;;;7.63;2.20;;;;;;;16.60;36.38;100021.91;5034258;28;20022;-71
2021/05/04 05:10:23;;;;;;;10.18;1.98;;;;;;;16.36;36.74;100005.78;5032960;28;20052;-72
2021/05/04 05:12:48;;;;;;;6.20;2.10;;;;;;;16.64;36.10;100014.50;5033589;28;20033;-88
2021/05/04 05:15:14;;;;;;;8.93;2.20;;;;;;;16.69;36.06;100029.94;5033877;28;20045;-88
2021/05/04 05:17:40;;;;;;;5.90;1.80;;;;;;;16.33;36.74;100034.88;5033886;28;20079;-88
2021/05/04 05:20:07;;;;;;;7.53;2.03;;;;;;;16.34;36.60;100050.25;5032594;28;20029;-88
2021/05/04 05:22:32;;;;;;;6.22;1.95;;;;;;;16.45;36.33;100053.19;5027696;28;20048;-87
2021/05/04 05:24:58;;;;;;;5.07;1.77;;;;;;;16.55;36.16;100055.34;5031786;28;20029;-71
2021/05/04 05:27:25;;;;;;;12.40;2.67;;;;;;;16.56;36.26;100062.44;5033511;28;20061;-78
2021/05/04 05:29:51;;;;;;;11.70;2.33;;;;;;;16.75;35.53;100063.53;5014235;28;20053;-79
2021/05/04 05:32:16;;;;;;;7.47;2.38;;;;;;;16.55;36.42;100063.63;5032497;28;20064;-79
2021/05/04 05:34:42;;;;;;;12.40;2.53;;;;;;;16.79;35.77;100073.47;5032036;28;20029;-80
2021/05/04 05:37:08;;;;;;;2.78;1.60;;;;;;;16.82;35.59;100066.41;5031774;28;20025;-79
2021/05/04 05:39:37;;;;;;;7.53;1.45;;;;;;;17.07;35.19;100078.59;5030464;28;20061;-80
2021/05/04 05:42:04;;;;;;;6.55;1.48;;;;;;;17.12;35.27;100092.09;5017334;28;20056;-80
2021/05/04 05:44:30;;;;;;;11.48;2.38;;;;;;;17.12;35.28;100088.53;5016498;28;20151;-83
2021/05/04 05:46:56;;;;;;;5.40;2.00;;;;;;;17.18;34.99;100095.31;5012598;28;20472;-85
2021/05/04 05:49:21;;;;;;;6.88;2.00;;;;;;;17.05;35.39;100103.03;5014089;28;20033;-79
2021/05/04 05:51:47;;;;;;;11.38;3.05;;;;;;;17.41;34.68;100098.00;4998268;28;20041;-81
2021/05/04 05:54:12;;;;;;;10.07;2.42;;;;;;;17.33;34.83;100093.56;5016711;28;20277;-84
2021/05/04 05:56:38;;;;;;;5.03;1.33;;;;;;;17.08;35.14;100104.25;5019242;28;20026;-81
2021/05/04 05:59:03;;;;;;;5.32;1.80;;;;;;;17.19;34.91;100111.50;5020851;28;20108;-85
2021/05/04 06:01:29;;;;;;;6.55;1.45;;;;;;;17.59;34.14;100104.53;5022173;28;20076;-81
2021/05/04 06:03:55;;;;;;;6.57;1.63;;;;;;;17.25;34.81;100108.44;5026201;28;20030;-83
2021/05/04 06:06:20;;;;;;;6.70;1.50;;;;;;;17.41;34.46;100120.88;5023157;28;20052;-78
2021/05/04 06:08:46;;;;;;;3.80;1.33;;;;;;;17.42;34.54;100124.44;5025136;28;20037;-85
2021/05/04 06:11:11;;;;;;;4.40;1.30;;;;;;;17.32;34.60;100133.38;5028812;28;20064;-86
2021/05/04 06:13:37;;;;;;;4.75;1.90;;;;;;;17.75;34.08;100132.78;5028277;28;20022;-80
2021/05/04 06:16:05;;;;;;;6.28;1.42;;;;;;;17.80;33.86;100139.97;5015398;28;20029;-86
2021/05/04 06:18:31;;;;;;;8.50;1.50;;;;;;;17.65;34.01;100130.66;5020685;28;20434;-82
2021/05/04 06:20:56;;;;;;;6.32;1.30;;;;;;;17.29;34.57;100147.91;5038063;28;20033;-83
2021/05/04 06:23:22;;;;;;;7.85;2.42;;;;;;;17.64;34.27;100151.19;5036434;28;20071;-84
2021/05/04 06:25:48;;;;;;;8.55;1.67;;;;;;;17.79;34.30;100138.38;5019454;28;20509;-82
2021/05/04 06:28:14;;;;;;;9.07;1.63;;;;;;;17.61;34.72;100138.13;5024212;28;20379;-82
2021/05/04 06:30:39;;;;;;;6.15;2.47;;;;;;;17.53;34.68;100150.22;5037702;28;20040;-85
2021/05/04 06:33:08;;;;;;;7.28;1.52;;;;;;;17.75;33.97;100109.88;5028360;28;20021;-81
2021/05/04 06:35:36;;;;;;;6.38;1.70;;;;;;;17.64;34.34;100150.38;5040154;28;20022;-82
2021/05/04 06:38:04;;;;;;;11.32;2.03;;;;;;;17.93;34.26;100159.88;5040321;28;20044;-82
2021/05/04 06:40:29;;;;;;;10.73;2.05;;;;;;;17.85;34.01;100158.19;5040928;28;20056;-81
2021/05/04 06:42:55;;;;;;;9.75;2.05;;;;;;;18.16;33.67;100162.50;5024096;28;21380;-81
2021/05/04 06:45:21;;;;;;;5.78;2.00;;;;;;;17.90;34.15;100175.22;5042917;28;20391;-87
2021/05/04 06:47:46;;;;;;;7.50;2.35;;;;;;;17.78;33.99;100177.44;5035007;28;20045;-86
2021/05/04 06:50:12;;;;;;;8.25;2.10;;;;;;;18.17;33.44;100173.19;5031592;28;20025;-86
2021/05/04 06:52:38;;;;;;;3.28;1.10;;;;;;;17.85;33.69;100170.03;5029006;28;20025;-82
2021/05/04 06:55:04;;;;;;;10.15;3.03;;;;;;;17.89;33.62;100162.56;5021172;28;20071;-85
2021/05/04 06:57:31;;;;;;;6.60;1.90;;;;;;;17.68;33.73;100167.78;5002756;28;20036;-82
2021/05/04 06:59:56;;;;;;;14.95;2.92;;;;;;;18.29;32.72;100181.22;5030572;28;20023;-83
2021/05/04 07:02:22;;;;;;;8.80;1.83;;;;;;;17.98;33.20;100168.59;5029056;28;20025;-80
2021/05/04 07:04:47;;;;;;;8.50;1.95;;;;;;;18.21;32.67;100190.63;5047456;28;20048;-77
2021/05/04 07:07:13;;;;;;;9.93;1.75;;;;;;;17.92;33.16;100188.69;5034408;28;20361;-88
2021/05/04 07:09:39;;;;;;;9.55;2.03;;;;;;;17.98;32.78;100187.94;5007156;28;20486;-78
2021/05/04 07:12:05;;;;;;;8.77;1.50;;;;;;;18.32;32.25;100195.47;5023624;28;20030;-86
2021/05/04 07:14:32;;;;;;;8.07;2.28;;;;;;;18.07;32.70;100200.72;4997177;28;20064;-84
2021/05/04 07:17:00;;;;;;;10.18;2.05;;;;;;;17.90;32.74;100193.78;5021112;28;20034;-85
2021/05/04 07:19:27;;;;;;;9.82;2.10;;;;;;;18.41;31.87;100210.56;5026184;28;20475;-86
2021/05/04 07:21:53;;;;;;;5.75;1.23;;;;;;;17.97;32.46;100191.09;5015180;28;20044;-83
2021/05/04 07:24:19;;;;;;;6.05;1.55;;;;;;;18.29;32.14;100208.09;5014035;28;20030;-84
2021/05/04 07:26:44;;;;;;;12.82;2.50;;;;;;;18.21;32.57;100196.16;5014162;28;20053;-85
2021/05/04 07:29:10;;;;;;;8.38;2.08;;;;;;;18.45;31.99;100205.88;4997190;28;20042;-83
2021/05/04 07:31:36;;;;;;;7.55;1.83;;;;;;;18.62;31.99;100209.22;5017547;28;20025;-83
2021/05/04 07:34:02;;;;;;;5.13;1.40;;;;;;;18.35;32.62;100211.28;5033625;28;20365;-86
2021/05/04 07:36:29;;;;;;;8.80;2.33;;;;;;;18.38;32.27;100213.31;5006680;28;20041;-84
2021/05/04 07:38:55;;;;;;;15.43;2.53;;;;;;;18.51;32.07;100220.97;5012200;28;20040;-85
2021/05/04 07:41:21;;;;;;;17.70;3.65;;;;;;;18.56;32.09;100222.59;5014099;28;20046;-86
2021/05/04 07:43:46;;;;;;;11.00;2.40;;;;;;;18.60;31.66;100215.13;5028623;28;20090;-88
2021/05/04 07:46:12;;;;;;;5.78;1.73;;;;;;;18.47;31.89;100214.59;5014714;28;20392;-86
2021/05/04 07:48:37;;;;;;;9.95;2.53;;;;;;;18.63;31.65;100217.13;5019528;28;20022;-82
2021/05/04 07:51:05;;;;;;;13.98;2.10;;;;;;;18.66;31.82;100221.91;5014669;28;20022;-87
2021/05/04 07:53:34;;;;;;;5.10;1.55;;;;;;;18.55;32.01;100230.09;5023021;28;20387;-82
2021/05/04 07:56:00;;;;;;;6.15;1.73;;;;;;;18.15;32.43;100230.81;5018286;28;20528;-85
2021/05/04 07:58:26;;;;;;;2.85;1.10;;;;;;;18.72;31.65;100223.19;5025833;28;20117;-88
2021/05/04 08:00:52;;;;;;;4.63;1.98;;;;;;;18.88;31.40;100230.44;5023675;28;20033;-87
2021/05/04 08:03:18;;;;;;;10.70;2.25;;;;;;;18.82;31.29;100239.09;5021445;28;20029;-88
2021/05/04 08:05:44;;;;;;;7.63;1.75;;;;;;;18.84;31.11;100231.22;5014549;28;20081;-82
2021/05/04 08:08:12;;;;;;;6.93;2.28;;;;;;;18.74;31.12;100242.97;5013449;28;20036;-84
2021/05/04 08:10:37;;;;;;;8.38;2.63;;;;;;;19.37;30.33;100236.41;5019343;28;20058;-89
2021/05/04 08:13:04;;;;;;;9.48;1.70;;;;;;;19.38;30.48;100243.53;5015197;28;20037;-81
2021/05/04 08:15:31;;;;;;;3.42;1.20;;;;;;;19.45;30.62;100242.00;5025407;28;20105;-89
2021/05/04 08:17:59;;;;;;;4.25;1.45;;;;;;;19.05;30.63;100257.50;5010948;28;20062;-83
2021/05/04 08:20:29;;;;;;;6.18;1.20;;;;;;;19.21;30.04;100251.72;5002873;28;20038;-81
2021/05/04 08:22:55;;;;;;;7.22;2.45;;;;;;;18.89;30.40;100241.13;5009179;28;20073;-85
2021/05/04 08:25:22;;;;;;;6.45;1.52;;;;;;;19.43;29.81;100244.38;5014512;28;20050;-89
2021/05/04 08:27:48;;;;;;;4.03;1.10;;;;;;;19.68;29.61;100248.91;5014461;28;20026;-82
2021/05/04 08:30:14;;;;;;;5.78;1.48;;;;;;;19.17;30.31;100259.97;5016801;28;20040;-90
2021/05/04 08:32:40;;;;;;;4.57;1.10;;;;;;;19.74;29.41;100265.97;5032136;28;20048;-81
2021/05/04 08:35:06;;;;;;;4.28;1.50;;;;;;;19.98;28.78;100256.22;5034251;28;20033;-82
2021/05/04 08:37:31;;;;;;;20.88;3.75;;;;;;;19.75;28.84;100264.00;5030798;28;20030;-90
2021/05/04 08:39:57;;;;;;;7.72;1.45;;;;;;;19.80;28.48;100264.44;5013492;28;20044;-84
2021/05/04 08:42:22;;;;;;;5.78;1.35;;;;;;;19.75;28.67;100278.66;5013611;28;20464;-88
2021/05/04 08:44:54;;;;;;;3.13;1.20;;;;;;;19.91;28.40;100275.56;5014844;28;20037;-81
2021/05/04 08:47:21;;;;;;;8.27;2.22;;;;;;;19.98;28.24;100280.38;5013976;28;20563;-85
2021/05/04 08:49:48;;;;;;;8.38;1.15;;;;;;;19.78;28.43;100288.97;5013197;28;20032;-82
2021/05/04 08:52:13;;;;;;;7.18;1.08;;;;;;;20.36;28.00;100281.75;5013005;28;20025;-88
2021/05/04 08:54:40;;;;;;;4.05;1.30;;;;;;;19.84;28.24;100298.50;5013897;28;20036;-89
2021/05/04 08:57:05;;;;;;;5.00;1.33;;;;;;;19.86;28.00;100298.13;5020119;28;20108;-86
2021/05/04 08:59:31;;;;;;;5.60;1.40;;;;;;;19.79;28.30;100298.06;5024189;28;20129;-84
2021/05/04 09:01:57;;;;;;;6.20;1.67;;;;;;;20.27;27.95;100295.97;5032396;28;20083;-85
2021/05/04 09:04:42;;;;;;;2.65;1.15;;;;;;;20.45;28.25;100285.78;5032266;28;20034;-88
2021/05/04 09:07:23;;;;;;;4.22;0.95;;;;;;;20.21;27.70;100301.09;5021286;28;20120;-82
2021/05/04 09:16:04;;;;;;;2.55;1.27;;;;;;;20.45;28.37;100285.78;5036806;28;20025;-90
2021/05/04 09:18:39;;;;;;;4.05;1.25;;;;;;;20.49;28.05;100288.56;5033932;28;20025;-88
2021/05/04 09:21:06;;;;;;;4.22;0.80;;;;;;;20.64;28.06;100294.97;5024053;28;20029;-88
2021/05/04 09:23:32;;;;;;;6.20;2.00;;;;;;;20.95;27.79;100301.78;5026386;28;20506;-90
2021/05/04 09:25:59;;;;;;;4.20;1.25;;;;;;;20.50;28.02;100299.28;5032765;28;20064;-90
2021/05/04 09:28:24;;;;;;;8.00;1.60;;;;;;;21.24;27.06;100297.84;5031485;28;20116;-91
2021/05/04 09:30:56;;;;;;;4.00;0.90;;;;;;;20.56;27.59;100305.25;5036377;28;20107;-88
2021/05/04 09:33:22;;;;;;;6.20;1.63;;;;;;;20.95;27.26;100296.22;5044057;28;20070;-89
2021/05/04 09:35:48;;;;;;;6.45;1.95;;;;;;;21.24;27.21;100294.28;5002095;28;20064;-91
2021/05/04 09:38:15;;;;;;;2.75;1.00;;;;;;;20.63;27.78;100301.69;5026995;28;20522;-91
2021/05/04 09:40:43;;;;;;;7.90;2.08;;;;;;;21.14;27.25;100300.59;4999820;28;20037;-88
2021/05/04 09:43:27;;;;;;;4.53;1.05;;;;;;;21.21;27.24;100292.28;5032773;28;20036;-84
2021/05/04 09:45:58;;;;;;;4.25;0.80;;;;;;;20.75;27.34;100299.34;5027333;28;20029;-88
2021/05/04 09:48:29;;;;;;;2.50;0.75;;;;;;;21.19;27.18;100289.91;5028328;28;20439;-92
2021/05/04 09:51:02;;;;;;;3.42;0.90;;;;;;;20.85;28.18;100296.97;5021469;28;20029;-89
2021/05/04 09:53:41;;;;;;;3.90;1.15;;;;;;;21.21;27.12;100287.50;5053544;28;20571;-81
2021/05/04 09:56:09;;;;;;;4.20;1.02;;;;;;;21.46;26.84;100284.78;5018605;28;20477;-82
2021/05/04 09:58:46;;;;;;;3.38;0.70;;;;;;;21.55;26.47;100293.50;5021698;28;20038;-90
2021/05/04 10:01:14;;;;;;;5.18;1.50;;;;;;;21.25;26.89;100301.44;5007545;28;20044;-89
2021/05/04 10:03:41;;;;;;;5.75;1.00;;;;;;;21.69;26.46;100289.94;5028497;28;20493;-91
2021/05/04 10:06:09;;;;;;;3.80;0.80;;;;;;;21.44;26.87;100306.59;5028140;28;20098;-84
2021/05/04 10:08:35;;;;;;;3.13;0.60;;;;;;;21.49;26.33;100320.13;5017510;28;20555;-83
2021/05/04 10:11:04;;;;;;;4.68;1.20;;;;;;;21.41;26.62;100337.19;5003927;28;20068;-81
2021/05/04 10:13:32;;;;;;;4.30;0.95;;;;;;;20.87;26.70;100328.75;5000635;28;20093;-91
2021/05/04 10:15:58;;;;;;;7.60;2.00;;;;;;;21.31;26.34;100322.91;4995061;28;20453;-82
2021/05/04 10:18:25;;;;;;;1.55;0.73;;;;;;;21.14;26.93;100326.41;4991745;28;20068;-89
2021/05/04 10:20:53;;;;;;;4.72;1.95;;;;;;;21.62;26.52;100328.06;4979815;28;20089;-86
2021/05/04 10:23:19;;;;;;;6.45;1.58;;;;;;;20.93;25.84;100343.03;4996234;28;20126;-87
2021/05/04 10:25:46;;;;;;;4.63;1.27;;;;;;;21.71;25.70;100334.00;5016071;28;20053;-90
2021/05/04 10:28:13;;;;;;;1.92;0.77;;;;;;;21.46;25.86;100331.22;5007058;28;20401;-90
2021/05/04 10:30:38;;;;;;;3.17;1.23;;;;;;;21.59;25.50;100333.22;5003082;28;20030;-91
2021/05/04 10:33:10;;;;;;;4.88;1.33;;;;;;;21.56;25.03;100353.47;5005702;28;20037;-90
2021/05/04 10:35:38;;;;;;;1.80;0.88;;;;;;;20.60;25.07;100356.00;4999550;28;20041;-89
2021/05/04 10:38:07;;;;;;;1.88;0.88;;;;;;;21.39;25.00;100356.25;4979606;28;20137;-90
2021/05/04 10:40:36;;;;;;;2.53;1.02;;;;;;;21.04;25.25;100349.41;4997578;28;20114;-89
2021/05/04 10:43:21;;;;;;;4.60;0.70;;;;;;;21.80;25.10;100346.31;5002101;28;20441;-89
2021/05/04 10:45:55;;;;;;;2.08;0.80;;;;;;;22.04;24.81;100341.13;4993097;28;20041;-81
2021/05/04 10:48:36;;;;;;;2.33;0.90;;;;;;;21.30;25.43;100367.72;5016152;28;20488;-89
2021/05/04 10:51:02;;;;;;;1.50;0.70;;;;;;;21.44;26.00;100366.97;4999592;28;20031;-83
2021/05/04 10:53:53;;;;;;;4.82;1.08;;;;;;;21.60;27.03;100376.50;4996430;28;20473;-89
2021/05/04 10:56:33;;;;;;;5.18;0.85;;;;;;;21.96;27.42;100376.50;4996619;28;20050;-91
2021/05/04 10:58:59;;;;;;;2.38;0.80;;;;;;;22.34;27.04;100382.41;4997548;28;20026;-81
2021/05/04 11:01:26;;;;;;;4.93;1.25;;;;;;;22.76;26.78;100369.56;5006842;28;20037;-85
2021/05/04 11:03:54;;;;;;;2.67;0.50;;;;;;;22.29;27.39;100380.03;5002448;28;20026;-91
2021/05/04 11:06:25;;;;;;;2.72;0.90;;;;;;;21.62;28.63;100392.00;4995346;28;20049;-87
2021/05/04 11:08:51;;;;;;;4.35;0.80;;;;;;;21.31;28.61;100405.44;4995583;28;20032;-89
2021/05/04 11:11:28;;;;;;;6.75;1.65;;;;;;;20.52;28.25;100406.31;5035969;28;20042;-89
2021/05/04 11:13:57;;;;;;;1.27;0.60;;;;;;;21.02;27.56;100401.78;5018009;28;20140;-90
2021/05/04 11:16:46;;;;;;;7.20;0.90;;;;;;;20.73;28.18;100404.44;5036763;28;20033;-89
2021/05/04 11:19:33;;;;;;;2.15;0.60;;;;;;;20.90;27.72;100404.91;5014928;28;20034;-90
2021/05/04 11:21:59;;;;;;;1.50;0.70;;;;;;;20.96;27.70;100415.25;5018094;28;20549;-89
2021/05/04 11:24:35;;;;;;;1.65;0.93;;;;;;;20.53;28.61;100416.25;5018030;28;20029;-81
2021/05/04 11:27:16;;;;;;;1.70;0.70;;;;;;;20.93;28.47;100431.88;5035760;28;20029;-88
2021/05/04 11:29:44;;;;;;;3.60;0.85;;;;;;;20.83;29.16;100435.41;5029831;28;20029;-81
2021/05/04 11:32:27;;;;;;;4.28;1.00;;;;;;;20.77;29.06;100433.00;5005297;28;20045;-83
2021/05/04 11:34:55;;;;;;;3.40;1.05;;;;;;;20.81;28.71;100446.94;5020627;28;20025;-84